x

Central Aleutians 230nm Sw Dutch Harbor (46072) Wave Buoy

11:50 - Thu 28th Jul 2016 All times are UTC.

  • Sig Wave height 3.0ft
  • Swell Direction
  • Peak Period 11s
  • Average Period 7s
  • Wind
    11mph, 13mph gusts
  • Sea Temp 54°f
  • Luft Temp 52°f
  • Sea Pressure 1013.8mb

More Historic Weather Station data

Upgrade to MSW Pro to gain access to the past 30 days of data for over 8000 Wavebouys and Weather Stations around the globe.

Join Pro

Comparision Forecast

View Surf forecast
   
Do 07/28 11:50 3ft 11s 7s 11 13 mph 1013.8mb 54f 52f
10:50 3ft 11s 7s 11 13 mph 1013.8mb 55f 53f
9:50 3ft 11s 7s 11 13 mph 1013.9mb 55f 53f
8:50 3ft 11s 7s 7
mph
1013.9mb 54f 54f
7:50 3ft 12s 7s 7
mph
1013.5mb 54f 53f
6:50 3ft 11s 7s 9
mph
1013.1mb 54f 53f
5:50 3.5ft 12s 7s 7
mph
1013mb 53f 51f
4:50 3.5ft 12s 6s 4
mph
1013.1mb 46f 52f
3:50 3.5ft 12s 7s 2 4 mph 1013.2mb 45f 52f
2:50 4ft 12s 8s 2 4 mph 1013.3mb 47f 52f
1:50 3ft 12s 7s 4
mph
1013.5mb 50f 52f
12:50 3.5ft 12s 7s 2
mph
1013.5mb 49f 52f
Mi 07/27 11:50 3.5ft 13s 7s 2 4 mph 1013.8mb 50f 52f
10:50 3.5ft 12s 7s 2
mph
1014mb 50f 52f
9:50 3.5ft 13s 7s 2
mph
1014.1mb 50f 52f
8:50 3.5ft 13s 7s  -  mph 1014mb 48f 50f
7:50 3.5ft 14s 7s 2 4 mph 1014mb 49f 50f
6:50 3.5ft 14s 7s 4 7 mph 1013.9mb 50f 51f
5:50 3.5ft 11s 6s 7 9 mph 1013.9mb 51f 51f
4:50 3.5ft 14s 6s 7 9 mph 1013.9mb 52f 51f
3:50 3.5ft 14s 6s 9 11 mph 1014mb 51f 51f
2:50 4ft 14s 5s 7 9 mph 1014mb 54f 51f
1:50 4ft 14s 6s 7 9 mph 1014mb 54f 50f
12:50 4ft 14s 6s 9 11 mph 1014.1mb 55f 50f
11:50 3.5ft 7s 6s 11 13 mph 1014.6mb 55f 50f
10:50 3.5ft 7s 6s 9 11 mph 1014.5mb 55f 51f
9:50 3.5ft 6s 6s 13 18 mph 1014.8mb 55f 51f
8:50 3.5ft 15s 6s 13 16 mph 1014.9mb 55f 51f
7:50 3.5ft 12s 6s 13 16 mph 1015.1mb 55f 51f
6:50 3.5ft 15s 6s 13 16 mph 1015mb 55f 51f
5:50 3.5ft 12s 6s 16 20 mph 1014.9mb 55f 51f
4:50 3.5ft 6s 6s 13 16 mph 1015.1mb 55f 51f
3:50 3.5ft 6s 6s 11 16 mph 1015.2mb 55f 52f
2:50 3.5ft 12s 6s 13 16 mph 1015.4mb 55f 51f
1:50 3.5ft 15s 6s 13
mph
1015.4mb 55f 51f
12:50 3.5ft 6s 6s 9 11 mph 1015.7mb 55f 52f
Di 07/26 11:50 3.5ft 6s 6s 9 11 mph 1016.1mb 55f 51f
10:50 3.5ft 6s 6s 9 11 mph 1016.2mb 55f 50f
9:50 4ft 6s 7s 7 9 mph 1016.4mb 55f 50f
8:50 3.5ft 6s 6s 2 4 mph 1016.6mb 55f 50f
7:50 3.5ft 6s 6s 2 4 mph 1016.6mb 55f 49f
6:50 3.5ft 6s 6s 9 11 mph 1016.6mb 54f 49f
5:50 3.5ft 15s 6s 13 18 mph 1016.3mb 55f 49f
4:50 3.5ft 15s 6s 11 16 mph 1015.8mb 55f 49f
3:50 3.5ft 15s 5s 2 4 mph 1015.6mb 54f 49f
2:50 3.5ft 7s 5s 11 13 mph 1015.5mb 54f 49f
1:50 3.5ft 15s 5s 13 16 mph 1015.5mb 54f 50f
12:50 3.5ft 14s 5s 13 18 mph 1015.2mb 54f 49f
11:50 3.5ft 16s 5s 16 18 mph 1015.3mb 54f 49f
10:50 3.5ft 12s 5s 18 22 mph 1014.9mb 54f 49f
9:50 3.5ft 16s 6s 18 22 mph 1014.5mb 55f 50f
8:50 3ft 8s 6s 13 18 mph 1014.6mb 54f 51f
7:50 3.5ft 8s 6s 13 16 mph 1014.3mb 55f 50f
6:50 3.5ft 16s 6s 11 13 mph 1013.5mb 55f 49f
5:50 3.5ft 15s 6s 11 13 mph 1013mb 54f 49f
4:50 3.5ft 9s 6s 11 13 mph 1012.5mb 54f 49f
3:50 4ft 13s 6s 11 16 mph 1012.4mb 54f 48f
2:50 4ft 15s 6s 18 20 mph 1012.2mb 54f 49f
1:50 4ft 15s 6s 16 20 mph 1012.3mb 54f 48f
12:50 4.5ft 6s 6s 18 20 mph 1012.4mb 54f 49f
Mo 07/25 11:50 4ft 8s 6s 22 25 mph 1012.3mb 53f 49f
10:50 4ft 7s 6s 16 18 mph 1012.5mb 53f 49f
9:50 4.5ft 8s 6s 13 16 mph 1012.5mb 53f 49f
8:50 4ft 8s 6s 16 20 mph 1012.9mb 54f 48f
7:50 4ft 8s 6s 20 22 mph 1013.1mb 53f 48f
5:50 4ft 14s 6s 18 20 mph 1012.2mb 54f 48f
4:50 4.5ft 14s 6s 18 22 mph 1012.5mb 55f 48f
3:50 4.5ft 14s 5s 13 18 mph 1012.7mb 54f 48f
2:50 5ft 12s 6s 16 20 mph 1012.7mb 54f 48f
1:50 5ft 6s 6s 13 18 mph 1013.4mb 55f 48f
12:50 5.5ft 6s 6s 16 18 mph 1013.8mb 55f 48f
11:50 5.5ft 6s 6s 13 18 mph 1014.1mb 55f 48f
10:50 5ft 6s 6s 11 13 mph 1014.6mb 53f 47f
9:50 4.5ft 6s 6s 11 13 mph 1014.7mb 53f 47f
8:50 5ft 6s 6s 11
mph
1014.8mb 50f 48f
7:50 5ft 7s 6s 11 16 mph 1014.8mb 47f 47f
6:50 5ft 6s 7s 11 13 mph 1014.9mb 47f 47f
5:50 5ft 6s 7s 11 13 mph 1015.3mb 47f 47f
4:50 5ft 7s 7s 11 16 mph 1015.1mb 48f 49f
3:50 5ft 7s 6s 13 16 mph 1015.4mb 49f 49f
2:50 5.5ft 7s 6s 11 13 mph 1015.7mb 49f 50f
1:50 5.5ft 7s 6s 16 18 mph 1016.3mb 53f 51f
12:50 6ft 7s 6s 13 16 mph 1016.7mb 54f 51f
So 07/24 11:50 5.5ft 7s 6s 9 11 mph 1016.8mb 55f 50f
10:50 5ft 7s 6s 9 11 mph 1017.2mb 54f 50f
9:50 6ft 6s 7s 13 16 mph 1017.6mb 54f 50f
8:50 5.5ft 7s 6s 13 16 mph 1018.1mb 54f 50f
7:50 5ft 9s 7s 11 13 mph 1018.2mb 51f 50f
6:50 5.5ft 7s 6s 13 16 mph 1018.6mb 53f 50f
5:50 5.5ft 7s 7s 11 16 mph 1019.1mb 53f 50f
4:50 5.5ft 10s 7s 13 16 mph 1019.2mb 53f 50f
3:50 5ft 6s 6s 16 18 mph 1019.3mb 52f 51f
2:50 5ft 10s 6s 18 22 mph 1019.1mb 51f 51f
1:50 5ft 10s 6s 22 27 mph 1019.6mb 51f 51f
12:50 5ft 5s 5s 16 20 mph 1019.4mb 51f 52f